createdAt,value
2019-03-02T00:03:11.684Z,39.87
2019-03-02T00:08:26.802Z,41.97
2019-03-02T00:13:31.625Z,42.93
2019-03-02T00:18:36.619Z,49.93
2019-03-02T00:23:41.405Z,43.30
2019-03-02T00:28:46.366Z,45.50
2019-03-02T00:33:53.708Z,42.73
2019-03-02T00:38:58.676Z,44.90
2019-03-02T00:44:04.629Z,44.20
2019-03-02T00:49:28.088Z,43.87
2019-03-02T00:54:33.060Z,47.07
2019-03-02T00:59:39.410Z,40.93
2019-03-02T01:04:57.875Z,41.70
2019-03-02T01:10:02.045Z,42.07
2019-03-02T01:15:09.436Z,40.27
2019-03-02T01:20:14.485Z,42.97
2019-03-02T01:25:19.922Z,41.97
2019-03-02T01:30:26.645Z,42.20
2019-03-02T01:35:32.501Z,41.30
2019-03-02T01:40:37.835Z,41.90
2019-03-02T01:45:44.237Z,40.77
2019-03-02T01:50:48.990Z,45.10
2019-03-02T01:55:53.081Z,43.03
2019-03-02T02:00:56.558Z,47.30
2019-03-02T02:06:03.794Z,46.03
2019-03-02T02:11:07.604Z,42.80
2019-03-02T02:16:10.900Z,44.60
2019-03-02T02:21:14.187Z,43.80
2019-03-02T02:26:17.504Z,47.07
2019-03-02T02:31:21.046Z,44.97
2019-03-02T02:36:24.633Z,45.53
2019-03-02T02:41:28.744Z,45.50
2019-03-02T02:46:34.366Z,40.77
2019-03-02T02:51:38.735Z,46.07
2019-03-02T02:56:42.758Z,44.20
2019-03-02T03:01:47.077Z,35.07
2019-03-02T03:06:51.149Z,35.97
2019-03-02T03:11:55.216Z,40.20
2019-03-02T03:16:59.315Z,35.30
2019-03-02T03:22:07.551Z,33.33
2019-03-02T03:27:13.272Z,35.37
2019-03-02T03:32:16.432Z,32.60
2019-03-02T03:37:22.699Z,33.97
2019-03-02T03:42:35.293Z,34.80
